sensor_id;sensor_type;location;lat;lon;timestamp;temperature;humidity
7388;DHT22;3735;50.136;11.062;2022-08-02T00:00:51;17.90;99.90
7388;DHT22;3735;50.136;11.062;2022-08-02T00:03:17;17.80;99.90
7388;DHT22;3735;50.136;11.062;2022-08-02T00:05:43;17.80;99.90
7388;DHT22;3735;50.136;11.062;2022-08-02T00:08:09;17.70;99.90
7388;DHT22;3735;50.136;11.062;2022-08-02T00:10:35;17.70;99.90
7388;DHT22;3735;50.136;11.062;2022-08-02T00:13:01;17.70;99.90
7388;DHT22;3735;50.136;11.062;2022-08-02T00:15:27;17.70;99.90
7388;DHT22;3735;50.136;11.062;2022-08-02T00:17:52;17.60;99.90
7388;DHT22;3735;50.136;11.062;2022-08-02T00:20:18;17.50;99.90
7388;DHT22;3735;50.136;11.062;2022-08-02T00:22:44;17.50;99.90
7388;DHT22;3735;50.136;11.062;2022-08-02T00:25:10;17.30;99.90
7388;DHT22;3735;50.136;11.062;2022-08-02T00:27:35;17.30;99.90
7388;DHT22;3735;50.136;11.062;2022-08-02T00:30:01;17.20;99.90
7388;DHT22;3735;50.136;11.062;2022-08-02T00:32:28;17.20;99.90
7388;DHT22;3735;50.136;11.062;2022-08-02T00:34:54;17.20;99.90
7388;DHT22;3735;50.136;11.062;2022-08-02T00:37:19;17.10;99.90
7388;DHT22;3735;50.136;11.062;2022-08-02T00:39:45;17.10;99.90
7388;DHT22;3735;50.136;11.062;2022-08-02T00:42:13;17.20;99.90
7388;DHT22;3735;50.136;11.062;2022-08-02T00:44:40;17.20;99.90
7388;DHT22;3735;50.136;11.062;2022-08-02T00:47:06;17.20;99.90
7388;DHT22;3735;50.136;11.062;2022-08-02T00:49:31;17.20;99.90
7388;DHT22;3735;50.136;11.062;2022-08-02T00:51:57;17.20;99.90
7388;DHT22;3735;50.136;11.062;2022-08-02T00:54:23;17.10;99.90
7388;DHT22;3735;50.136;11.062;2022-08-02T00:56:49;17.10;99.90
7388;DHT22;3735;50.136;11.062;2022-08-02T00:59:15;17.10;99.90
7388;DHT22;3735;50.136;11.062;2022-08-02T01:01:40;17.00;99.90
7388;DHT22;3735;50.136;11.062;2022-08-02T01:04:12;16.90;99.90
7388;DHT22;3735;50.136;11.062;2022-08-02T01:06:40;16.90;99.90
7388;DHT22;3735;50.136;11.062;2022-08-02T01:09:07;16.80;99.90
7388;DHT22;3735;50.136;11.062;2022-08-02T01:11:34;16.80;99.90
7388;DHT22;3735;50.136;11.062;2022-08-02T01:14:07;16.70;99.90
7388;DHT22;3735;50.136;11.062;2022-08-02T01:16:44;16.70;99.90
7388;DHT22;3735;50.136;11.062;2022-08-02T01:22:51;16.60;99.90
7388;DHT22;3735;50.136;11.062;2022-08-02T01:28:46;16.40;99.90
7388;DHT22;3735;50.136;11.062;2022-08-02T01:31:37;16.30;99.90
7388;DHT22;3735;50.136;11.062;2022-08-02T01:34:14;16.10;99.90
7388;DHT22;3735;50.136;11.062;2022-08-02T01:36:53;16.00;99.90
7388;DHT22;3735;50.136;11.062;2022-08-02T01:39:26;16.00;99.90
7388;DHT22;3735;50.136;11.062;2022-08-02T01:41:55;15.90;99.90
7388;DHT22;3735;50.136;11.062;2022-08-02T01:44:24;15.80;99.90
7388;DHT22;3735;50.136;11.062;2022-08-02T01:46:58;15.80;99.90
7388;DHT22;3735;50.136;11.062;2022-08-02T01:49:27;15.70;99.90
7388;DHT22;3735;50.136;11.062;2022-08-02T01:51:59;15.60;99.90
7388;DHT22;3735;50.136;11.062;2022-08-02T01:55:10;15.50;99.90
7388;DHT22;3735;50.136;11.062;2022-08-02T01:57:39;15.50;99.90
7388;DHT22;3735;50.136;11.062;2022-08-02T02:00:10;15.50;99.90
7388;DHT22;3735;50.136;11.062;2022-08-02T02:02:39;15.40;99.90
7388;DHT22;3735;50.136;11.062;2022-08-02T02:05:14;15.40;99.90
7388;DHT22;3735;50.136;11.062;2022-08-02T02:07:44;15.50;99.90
7388;DHT22;3735;50.136;11.062;2022-08-02T02:10:14;15.40;99.90
7388;DHT22;3735;50.136;11.062;2022-08-02T02:12:46;15.40;99.90
7388;DHT22;3735;50.136;11.062;2022-08-02T02:15:15;15.40;99.90
7388;DHT22;3735;50.136;11.062;2022-08-02T02:17:44;15.30;99.90
7388;DHT22;3735;50.136;11.062;2022-08-02T02:20:14;15.30;99.90
7388;DHT22;3735;50.136;11.062;2022-08-02T02:22:43;15.20;99.90
7388;DHT22;3735;50.136;11.062;2022-08-02T02:25:10;15.20;99.90
7388;DHT22;3735;50.136;11.062;2022-08-02T02:27:45;15.20;99.90
7388;DHT22;3735;50.136;11.062;2022-08-02T02:30:15;15.20;99.90
7388;DHT22;3735;50.136;11.062;2022-08-02T02:32:43;15.30;99.90
7388;DHT22;3735;50.136;11.062;2022-08-02T02:35:12;15.30;99.90
7388;DHT22;3735;50.136;11.062;2022-08-02T02:37:42;15.40;99.90
7388;DHT22;3735;50.136;11.062;2022-08-02T02:40:10;15.50;99.90
7388;DHT22;3735;50.136;11.062;2022-08-02T02:42:38;15.50;99.90
7388;DHT22;3735;50.136;11.062;2022-08-02T02:45:08;15.50;99.90
7388;DHT22;3735;50.136;11.062;2022-08-02T02:47:36;15.50;99.90
7388;DHT22;3735;50.136;11.062;2022-08-02T02:50:04;15.40;99.90
7388;DHT22;3735;50.136;11.062;2022-08-02T02:52:31;15.40;99.90
7388;DHT22;3735;50.136;11.062;2022-08-02T02:54:57;15.40;99.90
7388;DHT22;3735;50.136;11.062;2022-08-02T02:57:24;15.50;99.90
7388;DHT22;3735;50.136;11.062;2022-08-02T02:59:50;15.40;99.90
7388;DHT22;3735;50.136;11.062;2022-08-02T03:02:19;15.40;99.90
7388;DHT22;3735;50.136;11.062;2022-08-02T03:04:45;15.40;99.90
7388;DHT22;3735;50.136;11.062;2022-08-02T03:07:11;15.40;99.90
7388;DHT22;3735;50.136;11.062;2022-08-02T03:09:37;15.40;99.90
7388;DHT22;3735;50.136;11.062;2022-08-02T03:12:04;15.40;99.90
7388;DHT22;3735;50.136;11.062;2022-08-02T03:14:30;15.40;99.90
7388;DHT22;3735;50.136;11.062;2022-08-02T03:16:56;15.40;99.90
7388;DHT22;3735;50.136;11.062;2022-08-02T03:19:22;15.40;99.90
7388;DHT22;3735;50.136;11.062;2022-08-02T03:21:49;15.40;99.90
7388;DHT22;3735;50.136;11.062;2022-08-02T03:24:16;15.40;99.90
7388;DHT22;3735;50.136;11.062;2022-08-02T03:26:42;15.40;99.90
7388;DHT22;3735;50.136;11.062;2022-08-02T03:29:08;15.40;99.90
7388;DHT22;3735;50.136;11.062;2022-08-02T03:31:35;15.30;99.90
7388;DHT22;3735;50.136;11.062;2022-08-02T03:34:03;15.30;99.90
7388;DHT22;3735;50.136;11.062;2022-08-02T03:36:31;15.20;99.90
7388;DHT22;3735;50.136;11.062;2022-08-02T03:38:59;15.10;99.90
7388;DHT22;3735;50.136;11.062;2022-08-02T03:41:27;15.10;99.90
7388;DHT22;3735;50.136;11.062;2022-08-02T03:43:54;15.10;99.90
7388;DHT22;3735;50.136;11.062;2022-08-02T03:46:22;15.20;99.90
7388;DHT22;3735;50.136;11.062;2022-08-02T03:48:50;15.20;99.90
7388;DHT22;3735;50.136;11.062;2022-08-02T03:51:18;15.30;99.90
7388;DHT22;3735;50.136;11.062;2022-08-02T03:53:44;15.30;99.90
7388;DHT22;3735;50.136;11.062;2022-08-02T03:56:11;15.40;99.90
7388;DHT22;3735;50.136;11.062;2022-08-02T03:58:37;15.40;99.90
7388;DHT22;3735;50.136;11.062;2022-08-02T04:01:03;15.50;99.90
7388;DHT22;3735;50.136;11.062;2022-08-02T04:03:29;15.60;99.90
7388;DHT22;3735;50.136;11.062;2022-08-02T04:05:55;15.70;99.90
7388;DHT22;3735;50.136;11.062;2022-08-02T04:08:21;15.70;99.90
7388;DHT22;3735;50.136;11.062;2022-08-02T04:10:46;15.70;99.90
7388;DHT22;3735;50.136;11.062;2022-08-02T04:13:34;15.70;99.90
7388;DHT22;3735;50.136;11.062;2022-08-02T04:18:39;15.90;99.90
7388;DHT22;3735;50.136;11.062;2022-08-02T04:21:13;15.90;99.90
7388;DHT22;3735;50.136;11.062;2022-08-02T04:23:42;15.90;99.90
7388;DHT22;3735;50.136;11.062;2022-08-02T04:26:12;15.90;99.90
7388;DHT22;3735;50.136;11.062;2022-08-02T04:28:39;15.90;99.90
7388;DHT22;3735;50.136;11.062;2022-08-02T04:31:06;15.80;99.90
7388;DHT22;3735;50.136;11.062;2022-08-02T04:33:34;15.80;99.90
7388;DHT22;3735;50.136;11.062;2022-08-02T04:36:01;15.80;99.90
7388;DHT22;3735;50.136;11.062;2022-08-02T04:38:27;15.70;99.90
7388;DHT22;3735;50.136;11.062;2022-08-02T04:40:54;15.80;99.90
7388;DHT22;3735;50.136;11.062;2022-08-02T04:43:21;15.80;99.90
7388;DHT22;3735;50.136;11.062;2022-08-02T04:45:51;15.90;99.90
7388;DHT22;3735;50.136;11.062;2022-08-02T04:48:20;16.00;99.90
7388;DHT22;3735;50.136;11.062;2022-08-02T04:50:46;16.20;99.90
7388;DHT22;3735;50.136;11.062;2022-08-02T04:53:13;16.30;99.90
7388;DHT22;3735;50.136;11.062;2022-08-02T04:55:39;16.50;99.90
7388;DHT22;3735;50.136;11.062;2022-08-02T04:58:05;16.70;99.90
7388;DHT22;3735;50.136;11.062;2022-08-02T05:00:31;16.80;99.90
7388;DHT22;3735;50.136;11.062;2022-08-02T05:02:58;17.00;99.90
7388;DHT22;3735;50.136;11.062;2022-08-02T05:05:25;17.20;99.90
7388;DHT22;3735;50.136;11.062;2022-08-02T05:07:51;17.20;99.90
7388;DHT22;3735;50.136;11.062;2022-08-02T05:10:17;17.30;99.90
7388;DHT22;3735;50.136;11.062;2022-08-02T05:12:43;17.40;99.90
7388;DHT22;3735;50.136;11.062;2022-08-02T05:15:12;17.60;99.90
7388;DHT22;3735;50.136;11.062;2022-08-02T05:17:41;18.00;99.90
7388;DHT22;3735;50.136;11.062;2022-08-02T05:20:07;18.40;99.90
7388;DHT22;3735;50.136;11.062;2022-08-02T05:22:33;18.80;99.90
7388;DHT22;3735;50.136;11.062;2022-08-02T05:24:59;19.20;99.90
7388;DHT22;3735;50.136;11.062;2022-08-02T05:27:25;19.60;99.90
7388;DHT22;3735;50.136;11.062;2022-08-02T05:29:50;20.00;99.90
7388;DHT22;3735;50.136;11.062;2022-08-02T05:32:18;20.40;99.90
7388;DHT22;3735;50.136;11.062;2022-08-02T05:34:44;20.90;99.90
7388;DHT22;3735;50.136;11.062;2022-08-02T05:37:10;21.50;99.90
7388;DHT22;3735;50.136;11.062;2022-08-02T05:39:36;21.80;99.90
7388;DHT22;3735;50.136;11.062;2022-08-02T05:42:02;21.90;99.90
7388;DHT22;3735;50.136;11.062;2022-08-02T05:44:28;21.80;99.90
7388;DHT22;3735;50.136;11.062;2022-08-02T05:46:54;21.70;99.90
7388;DHT22;3735;50.136;11.062;2022-08-02T05:49:19;21.70;99.90
7388;DHT22;3735;50.136;11.062;2022-08-02T05:52:02;21.70;99.90
7388;DHT22;3735;50.136;11.062;2022-08-02T06:00:13;22.10;99.90
7388;DHT22;3735;50.136;11.062;2022-08-02T06:02:43;22.50;99.90
7388;DHT22;3735;50.136;11.062;2022-08-02T06:05:15;23.20;99.90
7388;DHT22;3735;50.136;11.062;2022-08-02T06:07:45;24.00;99.90
7388;DHT22;3735;50.136;11.062;2022-08-02T06:10:15;24.60;99.90
7388;DHT22;3735;50.136;11.062;2022-08-02T06:13:00;25.20;99.90
7388;DHT22;3735;50.136;11.062;2022-08-02T06:15:32;26.00;99.90
7388;DHT22;3735;50.136;11.062;2022-08-02T06:18:01;26.20;99.90
7388;DHT22;3735;50.136;11.062;2022-08-02T06:20:29;26.30;99.90
7388;DHT22;3735;50.136;11.062;2022-08-02T06:23:03;26.70;99.90
7388;DHT22;3735;50.136;11.062;2022-08-02T06:25:32;27.30;99.90
7388;DHT22;3735;50.136;11.062;2022-08-02T06:28:04;27.80;99.90
7388;DHT22;3735;50.136;11.062;2022-08-02T06:30:31;28.10;99.90
7388;DHT22;3735;50.136;11.062;2022-08-02T06:32:58;28.30;99.90
7388;DHT22;3735;50.136;11.062;2022-08-02T06:35:33;28.80;99.90
7388;DHT22;3735;50.136;11.062;2022-08-02T06:38:08;29.40;99.90
7388;DHT22;3735;50.136;11.062;2022-08-02T06:40:47;29.80;99.90
7388;DHT22;3735;50.136;11.062;2022-08-02T06:45:54;30.20;99.90
7388;DHT22;3735;50.136;11.062;2022-08-02T06:48:19;30.80;99.90
7388;DHT22;3735;50.136;11.062;2022-08-02T06:50:45;31.10;99.90
7388;DHT22;3735;50.136;11.062;2022-08-02T06:53:11;31.10;99.90
7388;DHT22;3735;50.136;11.062;2022-08-02T06:55:37;30.20;99.90
7388;DHT22;3735;50.136;11.062;2022-08-02T06:58:03;29.90;99.90
7388;DHT22;3735;50.136;11.062;2022-08-02T07:00:30;30.40;99.90
7388;DHT22;3735;50.136;11.062;2022-08-02T07:02:56;31.00;99.90
7388;DHT22;3735;50.136;11.062;2022-08-02T07:05:22;31.40;99.90
7388;DHT22;3735;50.136;11.062;2022-08-02T07:07:48;31.90;99.90
7388;DHT22;3735;50.136;11.062;2022-08-02T07:10:14;31.80;99.90
7388;DHT22;3735;50.136;11.062;2022-08-02T07:12:41;32.10;99.90
7388;DHT22;3735;50.136;11.062;2022-08-02T07:15:08;32.50;99.90
7388;DHT22;3735;50.136;11.062;2022-08-02T07:17:37;33.00;99.90
7388;DHT22;3735;50.136;11.062;2022-08-02T07:20:03;33.60;99.90
7388;DHT22;3735;50.136;11.062;2022-08-02T07:22:30;34.20;99.90
7388;DHT22;3735;50.136;11.062;2022-08-02T07:24:57;34.10;96.90
7388;DHT22;3735;50.136;11.062;2022-08-02T07:27:27;33.50;99.90
7388;DHT22;3735;50.136;11.062;2022-08-02T07:29:53;32.80;99.90
7388;DHT22;3735;50.136;11.062;2022-08-02T07:32:26;32.20;99.90
7388;DHT22;3735;50.136;11.062;2022-08-02T07:34:54;32.30;99.90
7388;DHT22;3735;50.136;11.062;2022-08-02T07:37:22;33.00;99.90
7388;DHT22;3735;50.136;11.062;2022-08-02T07:39:49;33.80;99.90
7388;DHT22;3735;50.136;11.062;2022-08-02T07:42:15;34.10;99.90
7388;DHT22;3735;50.136;11.062;2022-08-02T07:44:41;34.20;99.10
7388;DHT22;3735;50.136;11.062;2022-08-02T07:47:07;34.70;98.90
7388;DHT22;3735;50.136;11.062;2022-08-02T07:49:32;35.10;95.60
7388;DHT22;3735;50.136;11.062;2022-08-02T07:51:58;35.60;95.80
7388;DHT22;3735;50.136;11.062;2022-08-02T07:54:24;36.20;91.70
7388;DHT22;3735;50.136;11.062;2022-08-02T07:56:50;36.70;88.20
7388;DHT22;3735;50.136;11.062;2022-08-02T07:59:18;37.20;80.60
7388;DHT22;3735;50.136;11.062;2022-08-02T08:01:44;37.30;76.40
7388;DHT22;3735;50.136;11.062;2022-08-02T08:04:10;37.60;73.30
7388;DHT22;3735;50.136;11.062;2022-08-02T08:06:36;37.80;64.30
7388;DHT22;3735;50.136;11.062;2022-08-02T08:09:02;38.00;62.70
7388;DHT22;3735;50.136;11.062;2022-08-02T08:11:28;38.00;59.80
7388;DHT22;3735;50.136;11.062;2022-08-02T08:13:54;38.10;59.00
7388;DHT22;3735;50.136;11.062;2022-08-02T08:16:20;38.40;59.80
7388;DHT22;3735;50.136;11.062;2022-08-02T08:18:46;38.70;60.90
7388;DHT22;3735;50.136;11.062;2022-08-02T08:21:12;38.80;58.80
7388;DHT22;3735;50.136;11.062;2022-08-02T08:23:37;39.00;56.10
7388;DHT22;3735;50.136;11.062;2022-08-02T08:26:04;38.60;56.00
7388;DHT22;3735;50.136;11.062;2022-08-02T08:28:29;38.80;57.50
7388;DHT22;3735;50.136;11.062;2022-08-02T08:30:55;39.30;55.50
7388;DHT22;3735;50.136;11.062;2022-08-02T08:33:21;39.40;55.90
7388;DHT22;3735;50.136;11.062;2022-08-02T08:35:47;39.50;55.00
7388;DHT22;3735;50.136;11.062;2022-08-02T08:38:13;39.40;51.60
7388;DHT22;3735;50.136;11.062;2022-08-02T08:40:40;39.30;52.70
7388;DHT22;3735;50.136;11.062;2022-08-02T08:43:06;39.50;51.90
7388;DHT22;3735;50.136;11.062;2022-08-02T08:45:32;39.70;51.90
7388;DHT22;3735;50.136;11.062;2022-08-02T08:48:09;39.90;50.10
7388;DHT22;3735;50.136;11.062;2022-08-02T08:51:06;39.70;48.00
7388;DHT22;3735;50.136;11.062;2022-08-02T08:53:39;39.70;49.80
7388;DHT22;3735;50.136;11.062;2022-08-02T08:56:08;39.80;50.40
7388;DHT22;3735;50.136;11.062;2022-08-02T08:58:37;40.30;48.90
7388;DHT22;3735;50.136;11.062;2022-08-02T09:01:04;40.30;47.80
7388;DHT22;3735;50.136;11.062;2022-08-02T09:03:30;39.60;47.30
7388;DHT22;3735;50.136;11.062;2022-08-02T09:05:59;39.70;50.10
7388;DHT22;3735;50.136;11.062;2022-08-02T09:08:25;39.90;47.70
7388;DHT22;3735;50.136;11.062;2022-08-02T09:10:51;39.40;48.10
7388;DHT22;3735;50.136;11.062;2022-08-02T09:13:22;39.20;49.80
7388;DHT22;3735;50.136;11.062;2022-08-02T09:16:02;38.90;47.40
7388;DHT22;3735;50.136;11.062;2022-08-02T09:21:06;40.00;48.50
7388;DHT22;3735;50.136;11.062;2022-08-02T09:23:41;40.50;48.70
7388;DHT22;3735;50.136;11.062;2022-08-02T09:26:10;40.60;47.20
7388;DHT22;3735;50.136;11.062;2022-08-02T09:28:39;40.90;47.50
7388;DHT22;3735;50.136;11.062;2022-08-02T09:33:35;41.20;47.40
7388;DHT22;3735;50.136;11.062;2022-08-02T09:36:07;41.40;44.70
7388;DHT22;3735;50.136;11.062;2022-08-02T09:38:38;41.50;45.20
7388;DHT22;3735;50.136;11.062;2022-08-02T09:41:18;41.60;42.80
7388;DHT22;3735;50.136;11.062;2022-08-02T09:43:45;41.70;42.00
7388;DHT22;3735;50.136;11.062;2022-08-02T09:46:17;41.80;42.30
7388;DHT22;3735;50.136;11.062;2022-08-02T09:48:52;42.00;41.30
7388;DHT22;3735;50.136;11.062;2022-08-02T09:51:31;42.30;39.60
7388;DHT22;3735;50.136;11.062;2022-08-02T09:54:09;42.00;40.10
7388;DHT22;3735;50.136;11.062;2022-08-02T09:56:48;41.80;38.90
7388;DHT22;3735;50.136;11.062;2022-08-02T09:59:23;41.00;39.80
7388;DHT22;3735;50.136;11.062;2022-08-02T10:01:50;40.30;42.50
7388;DHT22;3735;50.136;11.062;2022-08-02T10:04:23;39.70;44.40
7388;DHT22;3735;50.136;11.062;2022-08-02T10:06:52;39.20;46.70
7388;DHT22;3735;50.136;11.062;2022-08-02T10:09:19;39.30;48.50
7388;DHT22;3735;50.136;11.062;2022-08-02T10:11:46;39.30;44.70
7388;DHT22;3735;50.136;11.062;2022-08-02T10:14:13;39.30;46.70
7388;DHT22;3735;50.136;11.062;2022-08-02T10:16:43;39.80;45.30
7388;DHT22;3735;50.136;11.062;2022-08-02T10:19:09;40.10;43.30
7388;DHT22;3735;50.136;11.062;2022-08-02T10:21:56;40.00;42.10
7388;DHT22;3735;50.136;11.062;2022-08-02T10:24:30;39.60;40.90
7388;DHT22;3735;50.136;11.062;2022-08-02T10:27:00;39.90;42.50
7388;DHT22;3735;50.136;11.062;2022-08-02T10:29:37;40.70;38.40
7388;DHT22;3735;50.136;11.062;2022-08-02T10:32:15;41.30;37.50
7388;DHT22;3735;50.136;11.062;2022-08-02T10:35:06;40.50;40.00
7388;DHT22;3735;50.136;11.062;2022-08-02T10:37:36;40.70;39.90
7388;DHT22;3735;50.136;11.062;2022-08-02T10:40:05;40.60;39.10
7388;DHT22;3735;50.136;11.062;2022-08-02T10:42:49;41.00;41.00
7388;DHT22;3735;50.136;11.062;2022-08-02T10:45:18;40.80;37.20
7388;DHT22;3735;50.136;11.062;2022-08-02T10:53:31;40.90;34.10
7388;DHT22;3735;50.136;11.062;2022-08-02T10:56:03;40.70;34.30
7388;DHT22;3735;50.136;11.062;2022-08-02T10:58:32;40.60;36.30
7388;DHT22;3735;50.136;11.062;2022-08-02T11:01:28;41.20;36.80
7388;DHT22;3735;50.136;11.062;2022-08-02T11:03:58;41.60;37.00
7388;DHT22;3735;50.136;11.062;2022-08-02T11:06:24;42.50;36.40
7388;DHT22;3735;50.136;11.062;2022-08-02T11:08:50;43.00;33.00
7388;DHT22;3735;50.136;11.062;2022-08-02T11:11:17;43.20;30.30
7388;DHT22;3735;50.136;11.062;2022-08-02T11:14:06;43.30;31.90
7388;DHT22;3735;50.136;11.062;2022-08-02T11:19:21;43.20;30.20
7388;DHT22;3735;50.136;11.062;2022-08-02T11:24:37;42.50;32.10
7388;DHT22;3735;50.136;11.062;2022-08-02T11:27:08;42.90;31.30
7388;DHT22;3735;50.136;11.062;2022-08-02T11:29:44;42.80;30.90
7388;DHT22;3735;50.136;11.062;2022-08-02T11:32:28;42.80;31.60
7388;DHT22;3735;50.136;11.062;2022-08-02T11:34:54;43.00;29.90
7388;DHT22;3735;50.136;11.062;2022-08-02T11:37:28;43.70;31.00
7388;DHT22;3735;50.136;11.062;2022-08-02T11:39:54;43.80;29.80
7388;DHT22;3735;50.136;11.062;2022-08-02T11:42:20;44.20;30.30
7388;DHT22;3735;50.136;11.062;2022-08-02T11:44:46;44.40;29.70
7388;DHT22;3735;50.136;11.062;2022-08-02T11:47:13;44.00;28.60
7388;DHT22;3735;50.136;11.062;2022-08-02T11:49:39;43.90;29.30
7388;DHT22;3735;50.136;11.062;2022-08-02T11:52:07;43.20;28.70
7388;DHT22;3735;50.136;11.062;2022-08-02T11:54:37;43.10;29.70
7388;DHT22;3735;50.136;11.062;2022-08-02T11:57:18;42.30;30.10
7388;DHT22;3735;50.136;11.062;2022-08-02T11:59:55;41.80;30.30
7388;DHT22;3735;50.136;11.062;2022-08-02T12:02:28;41.80;32.50
7388;DHT22;3735;50.136;11.062;2022-08-02T12:04:57;42.00;32.10
7388;DHT22;3735;50.136;11.062;2022-08-02T12:07:32;42.60;31.10
7388;DHT22;3735;50.136;11.062;2022-08-02T12:10:07;42.70;29.50
7388;DHT22;3735;50.136;11.062;2022-08-02T12:12:51;42.60;32.10
7388;DHT22;3735;50.136;11.062;2022-08-02T12:17:59;42.40;30.30
7388;DHT22;3735;50.136;11.062;2022-08-02T12:20:44;42.70;29.40
7388;DHT22;3735;50.136;11.062;2022-08-02T12:23:10;42.40;29.70
7388;DHT22;3735;50.136;11.062;2022-08-02T12:25:36;42.40;31.20
7388;DHT22;3735;50.136;11.062;2022-08-02T12:28:19;42.90;30.40
7388;DHT22;3735;50.136;11.062;2022-08-02T12:33:22;43.50;28.50
7388;DHT22;3735;50.136;11.062;2022-08-02T12:35:49;43.20;29.00
7388;DHT22;3735;50.136;11.062;2022-08-02T12:38:16;42.90;28.40
7388;DHT22;3735;50.136;11.062;2022-08-02T12:40:42;43.00;29.60
7388;DHT22;3735;50.136;11.062;2022-08-02T12:43:17;42.50;29.10
7388;DHT22;3735;50.136;11.062;2022-08-02T12:45:50;42.40;29.40
7388;DHT22;3735;50.136;11.062;2022-08-02T12:48:34;42.60;31.20
7388;DHT22;3735;50.136;11.062;2022-08-02T12:51:21;42.90;28.80
7388;DHT22;3735;50.136;11.062;2022-08-02T12:53:52;42.40;28.70
7388;DHT22;3735;50.136;11.062;2022-08-02T12:56:30;42.20;30.10
7388;DHT22;3735;50.136;11.062;2022-08-02T12:58:57;42.30;30.00
7388;DHT22;3735;50.136;11.062;2022-08-02T13:01:25;41.90;30.20
7388;DHT22;3735;50.136;11.062;2022-08-02T13:03:53;42.00;29.80
7388;DHT22;3735;50.136;11.062;2022-08-02T13:06:20;41.80;29.00
7388;DHT22;3735;50.136;11.062;2022-08-02T13:08:47;41.80;29.10
7388;DHT22;3735;50.136;11.062;2022-08-02T13:11:14;41.50;29.10
7388;DHT22;3735;50.136;11.062;2022-08-02T13:13:40;41.50;29.80
7388;DHT22;3735;50.136;11.062;2022-08-02T13:16:08;41.40;29.30
7388;DHT22;3735;50.136;11.062;2022-08-02T13:18:38;41.40;29.40
7388;DHT22;3735;50.136;11.062;2022-08-02T13:21:04;41.90;29.50
7388;DHT22;3735;50.136;11.062;2022-08-02T13:23:32;42.50;29.70
7388;DHT22;3735;50.136;11.062;2022-08-02T13:26:00;42.70;29.60
7388;DHT22;3735;50.136;11.062;2022-08-02T13:28:26;42.30;28.50
7388;DHT22;3735;50.136;11.062;2022-08-02T13:30:52;42.40;28.80
7388;DHT22;3735;50.136;11.062;2022-08-02T13:33:18;42.60;28.40
7388;DHT22;3735;50.136;11.062;2022-08-02T13:35:46;42.40;28.30
7388;DHT22;3735;50.136;11.062;2022-08-02T13:38:13;41.10;29.40
7388;DHT22;3735;50.136;11.062;2022-08-02T13:40:39;41.30;30.40
7388;DHT22;3735;50.136;11.062;2022-08-02T13:43:23;41.60;29.80
7388;DHT22;3735;50.136;11.062;2022-08-02T13:45:50;42.20;29.60
7388;DHT22;3735;50.136;11.062;2022-08-02T13:48:16;42.20;28.80
7388;DHT22;3735;50.136;11.062;2022-08-02T13:50:42;42.10;28.70
7388;DHT22;3735;50.136;11.062;2022-08-02T13:53:08;42.00;29.40
7388;DHT22;3735;50.136;11.062;2022-08-02T13:55:34;42.00;28.70
7388;DHT22;3735;50.136;11.062;2022-08-02T13:58:00;41.40;28.70
7388;DHT22;3735;50.136;11.062;2022-08-02T14:00:27;41.00;28.90
7388;DHT22;3735;50.136;11.062;2022-08-02T14:02:53;41.00;29.00
7388;DHT22;3735;50.136;11.062;2022-08-02T14:05:19;41.10;29.50
7388;DHT22;3735;50.136;11.062;2022-08-02T14:07:44;41.40;29.60
7388;DHT22;3735;50.136;11.062;2022-08-02T14:10:10;41.80;29.30
7388;DHT22;3735;50.136;11.062;2022-08-02T14:12:36;41.70;28.50
7388;DHT22;3735;50.136;11.062;2022-08-02T14:15:02;40.20;29.40
7388;DHT22;3735;50.136;11.062;2022-08-02T14:17:28;38.50;29.90
7388;DHT22;3735;50.136;11.062;2022-08-02T14:19:54;37.70;33.00
7388;DHT22;3735;50.136;11.062;2022-08-02T14:22:20;37.60;34.20
7388;DHT22;3735;50.136;11.062;2022-08-02T14:24:45;38.00;33.10
7388;DHT22;3735;50.136;11.062;2022-08-02T14:27:11;38.10;33.20
7388;DHT22;3735;50.136;11.062;2022-08-02T14:29:38;38.60;32.20
7388;DHT22;3735;50.136;11.062;2022-08-02T14:32:04;39.00;33.00
7388;DHT22;3735;50.136;11.062;2022-08-02T14:34:30;39.90;31.30
7388;DHT22;3735;50.136;11.062;2022-08-02T14:36:56;40.60;29.90
7388;DHT22;3735;50.136;11.062;2022-08-02T14:39:22;40.90;30.60
7388;DHT22;3735;50.136;11.062;2022-08-02T14:41:47;40.90;29.40
7388;DHT22;3735;50.136;11.062;2022-08-02T14:44:13;40.70;28.90
7388;DHT22;3735;50.136;11.062;2022-08-02T14:46:39;39.50;28.60
7388;DHT22;3735;50.136;11.062;2022-08-02T14:49:07;39.00;29.20
7388;DHT22;3735;50.136;11.062;2022-08-02T14:51:35;39.00;28.70
7388;DHT22;3735;50.136;11.062;2022-08-02T14:54:06;39.00;28.60
7388;DHT22;3735;50.136;11.062;2022-08-02T14:56:33;39.00;28.40
7388;DHT22;3735;50.136;11.062;2022-08-02T14:58:59;39.30;29.00
7388;DHT22;3735;50.136;11.062;2022-08-02T15:01:25;39.30;29.20
7388;DHT22;3735;50.136;11.062;2022-08-02T15:03:52;38.80;29.70
7388;DHT22;3735;50.136;11.062;2022-08-02T15:06:17;38.80;31.70
7388;DHT22;3735;50.136;11.062;2022-08-02T15:08:44;38.70;31.80
7388;DHT22;3735;50.136;11.062;2022-08-02T15:11:10;38.50;30.50
7388;DHT22;3735;50.136;11.062;2022-08-02T15:13:36;38.30;30.80
7388;DHT22;3735;50.136;11.062;2022-08-02T15:16:02;38.10;32.10
7388;DHT22;3735;50.136;11.062;2022-08-02T15:18:28;38.00;30.90
7388;DHT22;3735;50.136;11.062;2022-08-02T15:20:54;37.80;30.20
7388;DHT22;3735;50.136;11.062;2022-08-02T15:23:19;38.00;29.70
7388;DHT22;3735;50.136;11.062;2022-08-02T15:25:46;37.90;28.60
7388;DHT22;3735;50.136;11.062;2022-08-02T15:28:12;37.30;28.50
7388;DHT22;3735;50.136;11.062;2022-08-02T15:30:38;36.70;28.70
7388;DHT22;3735;50.136;11.062;2022-08-02T15:33:04;36.40;30.60
7388;DHT22;3735;50.136;11.062;2022-08-02T15:35:31;36.20;31.00
7388;DHT22;3735;50.136;11.062;2022-08-02T15:37:57;36.20;31.30
7388;DHT22;3735;50.136;11.062;2022-08-02T15:40:23;36.40;31.30
7388;DHT22;3735;50.136;11.062;2022-08-02T15:42:49;36.90;31.60
7388;DHT22;3735;50.136;11.062;2022-08-02T15:45:15;37.20;31.30
7388;DHT22;3735;50.136;11.062;2022-08-02T15:47:42;37.20;31.00
7388;DHT22;3735;50.136;11.062;2022-08-02T15:50:09;37.00;29.70
7388;DHT22;3735;50.136;11.062;2022-08-02T15:52:35;36.30;30.20
7388;DHT22;3735;50.136;11.062;2022-08-02T15:55:00;35.50;31.70
7388;DHT22;3735;50.136;11.062;2022-08-02T15:57:26;34.70;32.90
7388;DHT22;3735;50.136;11.062;2022-08-02T15:59:53;34.20;32.90
7388;DHT22;3735;50.136;11.062;2022-08-02T16:02:20;34.00;35.20
7388;DHT22;3735;50.136;11.062;2022-08-02T16:04:46;34.00;35.10
7388;DHT22;3735;50.136;11.062;2022-08-02T16:07:13;34.40;35.80
7388;DHT22;3735;50.136;11.062;2022-08-02T16:09:39;34.80;34.00
7388;DHT22;3735;50.136;11.062;2022-08-02T16:12:05;35.00;33.30
7388;DHT22;3735;50.136;11.062;2022-08-02T16:14:32;35.10;33.30
7388;DHT22;3735;50.136;11.062;2022-08-02T16:16:59;35.00;34.20
7388;DHT22;3735;50.136;11.062;2022-08-02T16:19:25;34.90;34.10
7388;DHT22;3735;50.136;11.062;2022-08-02T16:21:52;34.60;33.90
7388;DHT22;3735;50.136;11.062;2022-08-02T16:24:19;34.40;34.50
7388;DHT22;3735;50.136;11.062;2022-08-02T16:26:45;34.20;34.40
7388;DHT22;3735;50.136;11.062;2022-08-02T16:29:12;34.00;33.80
7388;DHT22;3735;50.136;11.062;2022-08-02T16:31:38;33.70;33.20
7388;DHT22;3735;50.136;11.062;2022-08-02T16:34:04;33.30;33.50